sensor_id;sensor_type;location;lat;lon;timestamp;pressure;altitude;pressure_sealevel;temperature;humidity
78825;BME280;68176;45.554;10.220;2023-04-03T02:41:05;99567.06;;;15.90;48.69
78825;BME280;68176;45.554;10.220;2023-04-03T02:43:31;99561.16;;;15.88;48.72
78825;BME280;68176;45.554;10.220;2023-04-03T02:45:56;99564.13;;;15.85;48.80
78825;BME280;68176;45.554;10.220;2023-04-03T02:48:25;99567.41;;;15.87;48.95
78825;BME280;68176;45.554;10.220;2023-04-03T02:50:55;99562.28;;;15.85;48.91
78825;BME280;68176;45.554;10.220;2023-04-03T02:53:24;99558.72;;;15.78;48.88
78825;BME280;68176;45.554;10.220;2023-04-03T02:55:54;99574.22;;;15.81;48.91
78825;BME280;68176;45.554;10.220;2023-04-03T02:58:25;99560.34;;;15.79;48.80
78825;BME280;68176;45.554;10.220;2023-04-03T03:00:55;99562.19;;;15.79;48.84
78825;BME280;68176;45.554;10.220;2023-04-03T03:03:24;99570.63;;;15.74;48.92
78825;BME280;68176;45.554;10.220;2023-04-03T03:08:28;99564.69;;;15.72;49.22
78825;BME280;68176;45.554;10.220;2023-04-03T03:10:55;99565.31;;;15.74;48.98
78825;BME280;68176;45.554;10.220;2023-04-03T03:13:25;99566.16;;;15.75;48.90
78825;BME280;68176;45.554;10.220;2023-04-03T03:15:55;99563.66;;;15.73;48.92
78825;BME280;68176;45.554;10.220;2023-04-03T03:18:25;99558.09;;;15.68;48.87
78825;BME280;68176;45.554;10.220;2023-04-03T03:20:57;99557.75;;;15.71;48.93
78825;BME280;68176;45.554;10.220;2023-04-03T03:23:27;99563.03;;;15.71;48.94
78825;BME280;68176;45.554;10.220;2023-04-03T03:25:56;99558.72;;;15.70;48.82
78825;BME280;68176;45.554;10.220;2023-04-03T03:28:25;99558.91;;;15.69;48.90
78825;BME280;68176;45.554;10.220;2023-04-03T03:30:56;99557.09;;;15.69;48.93
78825;BME280;68176;45.554;10.220;2023-04-03T03:33:25;99555.44;;;15.68;48.84
78825;BME280;68176;45.554;10.220;2023-04-03T03:35:55;99554.59;;;15.68;48.64
78825;BME280;68176;45.554;10.220;2023-04-03T03:38:25;99552.16;;;15.66;48.78
78825;BME280;68176;45.554;10.220;2023-04-03T03:40:55;99552.94;;;15.67;48.61
78825;BME280;68176;45.554;10.220;2023-04-03T03:43:25;99553.13;;;15.65;48.78
78825;BME280;68176;45.554;10.220;2023-04-03T03:45:55;99562.72;;;15.66;48.60
78825;BME280;68176;45.554;10.220;2023-04-03T03:48:25;99553.28;;;15.64;48.64
78825;BME280;68176;45.554;10.220;2023-04-03T03:50:55;99556.13;;;15.62;48.67
78825;BME280;68176;45.554;10.220;2023-04-03T03:53:25;99557.75;;;15.63;48.81
78825;BME280;68176;45.554;10.220;2023-04-03T03:55:55;99565.69;;;15.63;48.92
78825;BME280;68176;45.554;10.220;2023-04-03T03:58:25;99567.69;;;15.61;48.70
78825;BME280;68176;45.554;10.220;2023-04-03T04:00:55;99574.78;;;15.61;48.84
78825;BME280;68176;45.554;10.220;2023-04-03T04:03:25;99571.31;;;15.60;48.68
78825;BME280;68176;45.554;10.220;2023-04-03T04:05:55;99569.84;;;15.58;48.80
78825;BME280;68176;45.554;10.220;2023-04-03T04:08:25;99576.78;;;15.59;48.59
78825;BME280;68176;45.554;10.220;2023-04-03T04:10:55;99571.19;;;15.54;48.67
78825;BME280;68176;45.554;10.220;2023-04-03T04:13:25;99576.31;;;15.55;48.77
78825;BME280;68176;45.554;10.220;2023-04-03T04:15:55;99576.16;;;15.57;48.50
78825;BME280;68176;45.554;10.220;2023-04-03T04:18:25;99567.38;;;15.56;48.75
78825;BME280;68176;45.554;10.220;2023-04-03T04:20:55;99574.63;;;15.54;48.60
78825;BME280;68176;45.554;10.220;2023-04-03T04:23:25;99570.38;;;15.53;48.55
78825;BME280;68176;45.554;10.220;2023-04-03T04:25:55;99569.34;;;15.54;48.70
78825;BME280;68176;45.554;10.220;2023-04-03T04:28:25;99576.63;;;15.52;48.66
78825;BME280;68176;45.554;10.220;2023-04-03T04:30:55;99576.63;;;15.52;48.62
78825;BME280;68176;45.554;10.220;2023-04-03T04:33:25;99572.53;;;15.50;48.82
78825;BME280;68176;45.554;10.220;2023-04-03T04:35:55;99566.41;;;15.49;48.74
78825;BME280;68176;45.554;10.220;2023-04-03T04:38:25;99581.28;;;15.50;48.60
78825;BME280;68176;45.554;10.220;2023-04-03T04:40:55;99572.69;;;15.48;48.68
78825;BME280;68176;45.554;10.220;2023-04-03T04:43:25;99572.34;;;15.43;48.69
78825;BME280;68176;45.554;10.220;2023-04-03T04:46:07;99571.19;;;15.45;48.71
78825;BME280;68176;45.554;10.220;2023-04-03T04:48:34;99573.34;;;15.42;48.58
78825;BME280;68176;45.554;10.220;2023-04-03T04:51:00;99570.19;;;15.38;48.88
78825;BME280;68176;45.554;10.220;2023-04-03T04:53:27;99575.97;;;15.42;48.73
78825;BME280;68176;45.554;10.220;2023-04-03T04:55:57;99565.41;;;15.42;48.47
78825;BME280;68176;45.554;10.220;2023-04-03T04:58:27;99584.91;;;15.41;48.61
78825;BME280;68176;45.554;10.220;2023-04-03T05:01:00;99584.91;;;15.41;48.71
78825;BME280;68176;45.554;10.220;2023-04-03T05:03:27;99582.63;;;15.38;48.76
78825;BME280;68176;45.554;10.220;2023-04-03T05:05:57;99585.25;;;15.38;48.67
78825;BME280;68176;45.554;10.220;2023-04-03T05:08:27;99588.88;;;15.37;48.80
78825;BME280;68176;45.554;10.220;2023-04-03T05:10:57;99587.22;;;15.36;48.83
78825;BME280;68176;45.554;10.220;2023-04-03T05:13:27;99583.59;;;15.37;48.59
78825;BME280;68176;45.554;10.220;2023-04-03T05:15:57;99590.38;;;15.31;48.92
78825;BME280;68176;45.554;10.220;2023-04-03T05:18:27;99606.69;;;15.35;48.78
78825;BME280;68176;45.554;10.220;2023-04-03T05:20:56;99600.13;;;15.31;48.93
78825;BME280;68176;45.554;10.220;2023-04-03T05:23:27;99602.09;;;15.29;48.78
78825;BME280;68176;45.554;10.220;2023-04-03T05:25:57;99595.66;;;15.31;48.65
78825;BME280;68176;45.554;10.220;2023-04-03T05:28:27;99596.47;;;15.32;48.38
78825;BME280;68176;45.554;10.220;2023-04-03T05:30:58;99596.66;;;15.30;49.03
78825;BME280;68176;45.554;10.220;2023-04-03T05:33:27;99608.06;;;15.31;49.02
78825;BME280;68176;45.554;10.220;2023-04-03T05:36:02;99611.69;;;15.30;48.86
78825;BME280;68176;45.554;10.220;2023-04-03T05:38:28;99604.41;;;15.24;49.02
78825;BME280;68176;45.554;10.220;2023-04-03T05:40:57;99602.44;;;15.26;48.87
78825;BME280;68176;45.554;10.220;2023-04-03T05:43:27;99612.84;;;15.27;48.72
78825;BME280;68176;45.554;10.220;2023-04-03T05:45:57;99615.16;;;15.22;49.01
78825;BME280;68176;45.554;10.220;2023-04-03T05:48:27;99618.28;;;15.26;48.83
78825;BME280;68176;45.554;10.220;2023-04-03T05:50:58;99619.94;;;15.27;48.82
78825;BME280;68176;45.554;10.220;2023-04-03T05:53:28;99618.28;;;15.26;48.54
78825;BME280;68176;45.554;10.220;2023-04-03T05:55:57;99627.22;;;15.25;48.64
78825;BME280;68176;45.554;10.220;2023-04-03T05:58:27;99619.28;;;15.25;48.73
78825;BME280;68176;45.554;10.220;2023-04-03T06:00:57;99623.91;;;15.23;48.81
78825;BME280;68176;45.554;10.220;2023-04-03T06:03:27;99620.28;;;15.24;48.63
78825;BME280;68176;45.554;10.220;2023-04-03T06:05:57;99625.56;;;15.24;48.53
78825;BME280;68176;45.554;10.220;2023-04-03T06:08:27;99625.56;;;15.24;48.76
78825;BME280;68176;45.554;10.220;2023-04-03T06:10:57;99630.84;;;15.24;48.87
78825;BME280;68176;45.554;10.220;2023-04-03T06:13:27;99627.22;;;15.25;48.81
78825;BME280;68176;45.554;10.220;2023-04-03T06:15:57;99630.84;;;15.24;48.99
78825;BME280;68176;45.554;10.220;2023-04-03T06:18:27;99632.84;;;15.22;48.74
78825;BME280;68176;45.554;10.220;2023-04-03T06:20:57;99627.56;;;15.22;48.75
78825;BME280;68176;45.554;10.220;2023-04-03T06:23:27;99627.56;;;15.22;48.79
78825;BME280;68176;45.554;10.220;2023-04-03T06:25:57;99622.28;;;15.22;48.82
78825;BME280;68176;45.554;10.220;2023-04-03T06:28:27;99632.84;;;15.22;48.65
78825;BME280;68176;45.554;10.220;2023-04-03T06:30:57;99628.69;;;15.19;48.68
78825;BME280;68176;45.554;10.220;2023-04-03T06:33:27;99640.41;;;15.17;48.83
78825;BME280;68176;45.554;10.220;2023-04-03T06:35:58;99639.09;;;15.21;48.81
78825;BME280;68176;45.554;10.220;2023-04-03T06:38:27;99649.03;;;15.19;48.60
78825;BME280;68176;45.554;10.220;2023-04-03T06:40:57;99651.31;;;15.14;48.94
78825;BME280;68176;45.554;10.220;2023-04-03T06:43:27;99657.94;;;15.18;48.91
78825;BME280;68176;45.554;10.220;2023-04-03T06:45:57;99654.31;;;15.19;48.66
78825;BME280;68176;45.554;10.220;2023-04-03T06:48:27;99654.31;;;15.19;48.87
78825;BME280;68176;45.554;10.220;2023-04-03T06:50:57;99652.66;;;15.18;48.88
78825;BME280;68176;45.554;10.220;2023-04-03T06:53:27;99656.25;;;15.17;48.76
78825;BME280;68176;45.554;10.220;2023-04-03T06:55:57;99660.56;;;15.18;48.94
78825;BME280;68176;45.554;10.220;2023-04-03T06:58:27;99655.44;;;15.16;49.09
78825;BME280;68176;45.554;10.220;2023-04-03T07:00:57;99650.97;;;15.17;48.98
78825;BME280;68176;45.554;10.220;2023-04-03T07:03:27;99652.78;;;15.16;48.91
78825;BME280;68176;45.554;10.220;2023-04-03T07:05:57;99655.63;;;15.15;48.82
78825;BME280;68176;45.554;10.220;2023-04-03T07:08:27;99658.06;;;15.16;48.91
78825;BME280;68176;45.554;10.220;2023-04-03T07:10:57;99649.50;;;15.14;48.67
78825;BME280;68176;45.554;10.220;2023-04-03T07:13:27;99650.34;;;15.15;48.87
78825;BME280;68176;45.554;10.220;2023-04-03T07:15:58;99655.44;;;15.16;48.90
78825;BME280;68176;45.554;10.220;2023-04-03T07:18:27;99652.97;;;15.15;48.77
78825;BME280;68176;45.554;10.220;2023-04-03T07:20:57;99652.97;;;15.15;48.89
78825;BME280;68176;45.554;10.220;2023-04-03T07:23:27;99656.44;;;15.15;48.77
78825;BME280;68176;45.554;10.220;2023-04-03T07:25:57;99649.50;;;15.14;48.99
78825;BME280;68176;45.554;10.220;2023-04-03T07:28:27;99656.09;;;15.10;49.03
78825;BME280;68176;45.554;10.220;2023-04-03T07:31:03;99654.97;;;15.13;48.89
78825;BME280;68176;45.554;10.220;2023-04-03T07:33:30;99658.94;;;15.09;49.09
78825;BME280;68176;45.554;10.220;2023-04-03T07:35:58;99654.28;;;15.11;48.97
78825;BME280;68176;45.554;10.220;2023-04-03T07:38:28;99655.78;;;15.13;49.12
78825;BME280;68176;45.554;10.220;2023-04-03T07:40:58;99664.72;;;15.12;48.89
78825;BME280;68176;45.554;10.220;2023-04-03T07:43:28;99653.31;;;15.12;48.90
78825;BME280;68176;45.554;10.220;2023-04-03T07:45:58;99651.00;;;15.09;49.03
78825;BME280;68176;45.554;10.220;2023-04-03T07:48:28;99649.00;;;15.11;48.95
78825;BME280;68176;45.554;10.220;2023-04-03T07:51:02;99656.09;;;15.10;48.96
78825;BME280;68176;45.554;10.220;2023-04-03T07:53:28;99652.63;;;15.10;48.94
78825;BME280;68176;45.554;10.220;2023-04-03T07:55:58;99651.66;;;15.11;49.01
78825;BME280;68176;45.554;10.220;2023-04-03T07:58:28;99649.00;;;15.11;49.06
78825;BME280;68176;45.554;10.220;2023-04-03T08:00:58;99649.84;;;15.11;48.99
78825;BME280;68176;45.554;10.220;2023-04-03T08:03:29;99656.94;;;15.11;49.20
78825;BME280;68176;45.554;10.220;2023-04-03T08:06:02;99654.97;;;15.13;49.14
78825;BME280;68176;45.554;10.220;2023-04-03T08:08:28;99667.50;;;15.11;49.08
78825;BME280;68176;45.554;10.220;2023-04-03T08:10:59;99657.75;;;15.11;49.21
78825;BME280;68176;45.554;10.220;2023-04-03T08:13:28;99648.84;;;15.12;49.32
78825;BME280;68176;45.554;10.220;2023-04-03T08:15:58;99658.59;;;15.12;49.21
78825;BME280;68176;45.554;10.220;2023-04-03T08:18:31;99652.81;;;15.08;49.45
78825;BME280;68176;45.554;10.220;2023-04-03T08:20:58;99650.66;;;15.12;49.33
78825;BME280;68176;45.554;10.220;2023-04-03T08:23:28;99648.50;;;15.07;49.09
78825;BME280;68176;45.554;10.220;2023-04-03T08:25:58;99647.19;;;15.11;49.24
78825;BME280;68176;45.554;10.220;2023-04-03T08:28:28;99652.31;;;15.13;49.30
78825;BME280;68176;45.554;10.220;2023-04-03T08:31:01;99646.69;;;15.08;49.40
78825;BME280;68176;45.554;10.220;2023-04-03T08:33:28;99655.28;;;15.10;49.50
78825;BME280;68176;45.554;10.220;2023-04-03T08:35:58;99650.66;;;15.12;49.08
78825;BME280;68176;45.554;10.220;2023-04-03T08:38:28;99651.97;;;15.08;49.56
78825;BME280;68176;45.554;10.220;2023-04-03T08:41:04;99663.88;;;15.12;49.39
78825;BME280;68176;45.554;10.220;2023-04-03T08:43:56;99652.81;;;15.08;49.57
78825;BME280;68176;45.554;10.220;2023-04-03T08:46:26;99657.25;;;15.08;49.55
78825;BME280;68176;45.554;10.220;2023-04-03T08:48:58;99658.25;;;15.07;49.44
78825;BME280;68176;45.554;10.220;2023-04-03T08:51:26;99654.81;;;15.06;49.45
78825;BME280;68176;45.554;10.220;2023-04-03T08:53:59;99655.28;;;15.10;49.47
78825;BME280;68176;45.554;10.220;2023-04-03T08:56:26;99647.69;;;15.07;49.50
78825;BME280;68176;45.554;10.220;2023-04-03T08:59:05;99653.63;;;15.09;49.55
78825;BME280;68176;45.554;10.220;2023-04-03T09:01:35;99645.03;;;15.07;49.36
78825;BME280;68176;45.554;10.220;2023-04-03T09:04:08;99654.81;;;15.06;49.65
78825;BME280;68176;45.554;10.220;2023-04-03T09:06:36;99646.69;;;15.08;49.44
78825;BME280;68176;45.554;10.220;2023-04-03T09:09:06;99649.53;;;15.06;49.51
78825;BME280;68176;45.554;10.220;2023-04-03T09:12:06;99651.97;;;15.08;49.59
78825;BME280;68176;45.554;10.220;2023-04-03T09:14:44;99647.69;;;15.07;49.61
78825;BME280;68176;45.554;10.220;2023-04-03T09:17:24;99648.69;;;15.06;49.21
78825;BME280;68176;45.554;10.220;2023-04-03T09:22:32;99641.41;;;15.08;49.82
78825;BME280;68176;45.554;10.220;2023-04-03T09:25:14;99645.03;;;15.07;49.60
78825;BME280;68176;45.554;10.220;2023-04-03T09:27:40;99636.13;;;15.08;49.60
78825;BME280;68176;45.554;10.220;2023-04-03T09:30:08;99630.84;;;15.08;49.85
78825;BME280;68176;45.554;10.220;2023-04-03T09:32:37;99632.84;;;15.06;50.06
78825;BME280;68176;45.554;10.220;2023-04-03T09:37:38;99643.91;;;15.09;49.75
78825;BME280;68176;45.554;10.220;2023-04-03T09:40:05;99637.47;;;15.12;49.23
78825;BME280;68176;45.554;10.220;2023-04-03T09:42:40;99644.06;;;15.16;49.47
78825;BME280;68176;45.554;10.220;2023-04-03T09:45:22;99641.75;;;15.13;49.61
78825;BME280;68176;45.554;10.220;2023-04-03T09:47:48;99644.41;;;15.13;49.15
78825;BME280;68176;45.554;10.220;2023-04-03T09:52:45;99641.75;;;15.21;48.83
78825;BME280;68176;45.554;10.220;2023-04-03T09:55:23;99629.38;;;15.21;49.37
78825;BME280;68176;45.554;10.220;2023-04-03T09:57:54;99635.81;;;15.19;49.05
78825;BME280;68176;45.554;10.220;2023-04-03T10:02:46;99634.81;;;15.20;48.89
78825;BME280;68176;45.554;10.220;2023-04-03T10:07:51;99633.34;;;15.25;49.27
78825;BME280;68176;45.554;10.220;2023-04-03T10:10:19;99624.06;;;15.29;48.87
78825;BME280;68176;45.554;10.220;2023-04-03T10:12:48;99624.25;;;15.28;48.97
78825;BME280;68176;45.554;10.220;2023-04-03T10:15:17;99619.25;;;15.33;48.86
78825;BME280;68176;45.554;10.220;2023-04-03T10:20:37;99619.25;;;15.33;48.70
78825;BME280;68176;45.554;10.220;2023-04-03T10:23:27;99616.47;;;15.34;48.21
78825;BME280;68176;45.554;10.220;2023-04-03T10:28:57;99614.97;;;15.40;47.39
78825;BME280;68176;45.554;10.220;2023-04-03T10:40:04;99612.31;;;15.56;47.29
78825;BME280;68176;45.554;10.220;2023-04-03T10:46:18;99594.44;;;15.66;47.42
78825;BME280;68176;45.554;10.220;2023-04-03T10:54:08;99594.03;;;15.85;47.30
78825;BME280;68176;45.554;10.220;2023-04-03T10:56:40;99591.84;;;15.89;47.46
78825;BME280;68176;45.554;10.220;2023-04-03T10:59:29;99590.53;;;15.93;47.22
78825;BME280;68176;45.554;10.220;2023-04-03T11:01:58;99597.13;;;15.97;47.18
78825;BME280;68176;45.554;10.220;2023-04-03T11:04:27;99581.75;;;16.00;47.13
78825;BME280;68176;45.554;10.220;2023-04-03T11:07:08;99575.91;;;16.05;47.33
78825;BME280;68176;45.554;10.220;2023-04-03T11:09:37;99570.13;;;16.10;47.33
78825;BME280;68176;45.554;10.220;2023-04-03T11:12:13;99574.34;;;16.19;47.46
78825;BME280;68176;45.554;10.220;2023-04-03T11:14:40;99572.00;;;16.24;47.40
78825;BME280;68176;45.554;10.220;2023-04-03T11:22:45;99556.84;;;16.40;47.17
78825;BME280;68176;45.554;10.220;2023-04-03T11:27:43;99563.56;;;16.51;47.52
78825;BME280;68176;45.554;10.220;2023-04-03T11:33:05;99550.63;;;16.56;47.34
78825;BME280;68176;45.554;10.220;2023-04-03T11:35:36;99542.97;;;16.61;47.48
78825;BME280;68176;45.554;10.220;2023-04-03T11:38:04;99545.56;;;16.69;47.27
78825;BME280;68176;45.554;10.220;2023-04-03T11:40:33;99549.16;;;16.76;47.34
78825;BME280;68176;45.554;10.220;2023-04-03T11:48:41;99534.34;;;17.04;47.22
78825;BME280;68176;45.554;10.220;2023-04-03T11:50:52;99542.38;;;17.11;47.29
78825;BME280;68176;45.554;10.220;2023-04-03T11:53:37;99532.31;;;17.21;47.10
78825;BME280;68176;45.554;10.220;2023-04-03T12:01:44;99532.97;;;17.38;47.15
78825;BME280;68176;45.554;10.220;2023-04-03T12:04:11;99524.75;;;17.33;47.28
78825;BME280;68176;45.554;10.220;2023-04-03T12:09:27;99516.69;;;17.41;47.34
78825;BME280;68176;45.554;10.220;2023-04-03T12:11:53;99516.63;;;17.49;47.11
78825;BME280;68176;45.554;10.220;2023-04-03T12:14:22;99515.91;;;17.55;47.29
78825;BME280;68176;45.554;10.220;2023-04-03T12:16:50;99507.84;;;17.63;47.03
78825;BME280;68176;45.554;10.220;2023-04-03T12:29:33;99493.47;;;17.93;47.12
78825;BME280;68176;45.554;10.220;2023-04-03T12:38:22;99491.38;;;18.25;47.03
78825;BME280;68176;45.554;10.220;2023-04-03T12:46:52;99493.75;;;18.41;46.93
78825;BME280;68176;45.554;10.220;2023-04-03T12:49:33;99489.28;;;18.41;47.06
78825;BME280;68176;45.554;10.220;2023-04-03T12:54:46;99477.69;;;18.49;46.91
78825;BME280;68176;45.554;10.220;2023-04-03T12:57:18;99485.56;;;18.57;46.83
78825;BME280;68176;45.554;10.220;2023-04-03T12:59:47;99479.47;;;18.63;46.83
78825;BME280;68176;45.554;10.220;2023-04-03T13:04:55;99488.81;;;18.80;46.85
78825;BME280;68176;45.554;10.220;2023-04-03T13:07:34;99492.72;;;18.84;46.94
78825;BME280;68176;45.554;10.220;2023-04-03T13:12:32;99484.06;;;18.76;46.75
78825;BME280;68176;45.554;10.220;2023-04-03T13:14:59;99492.19;;;18.68;47.14
78825;BME280;68176;45.554;10.220;2023-04-03T13:17:30;99483.16;;;18.62;47.11
78825;BME280;68176;45.554;10.220;2023-04-03T13:20:10;99483.72;;;18.57;47.07
78825;BME280;68176;45.554;10.220;2023-04-03T13:23:20;99472.41;;;18.49;47.18
78825;BME280;68176;45.554;10.220;2023-04-03T13:25:29;99459.75;;;18.51;47.40
78825;BME280;68176;45.554;10.220;2023-04-03T13:27:58;99447.84;;;18.47;47.53
78825;BME280;68176;45.554;10.220;2023-04-03T13:30:33;99443.44;;;18.54;47.29
78825;BME280;68176;45.554;10.220;2023-04-03T13:33:02;99423.47;;;18.58;46.89
78825;BME280;68176;45.554;10.220;2023-04-03T13:35:40;99406.34;;;18.67;46.93
78825;BME280;68176;45.554;10.220;2023-04-03T13:38:22;99424.84;;;18.82;46.79
78825;BME280;68176;45.554;10.220;2023-04-03T13:43:20;99453.88;;;18.83;46.82
78825;BME280;68176;45.554;10.220;2023-04-03T13:46:03;99447.94;;;18.81;46.71
78825;BME280;68176;45.554;10.220;2023-04-03T13:48:42;99459.75;;;18.79;46.83
78825;BME280;68176;45.554;10.220;2023-04-03T13:53:49;99458.91;;;18.72;46.85
78825;BME280;68176;45.554;10.220;2023-04-03T13:56:31;99456.66;;;18.69;46.97
78825;BME280;68176;45.554;10.220;2023-04-03T13:59:19;99459.03;;;18.63;47.22
78825;BME280;68176;45.554;10.220;2023-04-03T14:01:55;99448.38;;;18.57;46.98
78825;BME280;68176;45.554;10.220;2023-04-03T14:04:53;99439.34;;;18.51;47.38
78825;BME280;68176;45.554;10.220;2023-04-03T14:07:23;99433.94;;;18.45;47.37
78825;BME280;68176;45.554;10.220;2023-04-03T14:09:49;99444.56;;;18.45;47.33
78825;BME280;68176;45.554;10.220;2023-04-03T14:14:51;99451.53;;;18.46;47.47
78825;BME280;68176;45.554;10.220;2023-04-03T14:17:19;99444.88;;;18.50;47.20
78825;BME280;68176;45.554;10.220;2023-04-03T14:19:48;99443.00;;;18.50;46.88
78825;BME280;68176;45.554;10.220;2023-04-03T14:22:21;99460.78;;;18.50;46.90
78825;BME280;68176;45.554;10.220;2023-04-03T14:24:48;99450.72;;;18.45;46.69
78825;BME280;68176;45.554;10.220;2023-04-03T14:27:22;99453.50;;;18.37;47.31
78825;BME280;68176;45.554;10.220;2023-04-03T14:29:51;99448.53;;;18.28;47.74
78825;BME280;68176;45.554;10.220;2023-04-03T14:32:23;99448.91;;;18.25;47.50
78825;BME280;68176;45.554;10.220;2023-04-03T14:34:50;99437.19;;;18.19;47.70
78825;BME280;68176;45.554;10.220;2023-04-03T14:37:20;99433.34;;;18.22;47.66
78825;BME280;68176;45.554;10.220;2023-04-03T14:39:50;99427.03;;;18.23;47.49
78825;BME280;68176;45.554;10.220;2023-04-03T14:42:21;99415.41;;;18.24;47.28
78825;BME280;68176;45.554;10.220;2023-04-03T14:44:47;99431.38;;;18.30;47.24
78825;BME280;68176;45.554;10.220;2023-04-03T14:47:21;99435.50;;;18.33;47.30
78825;BME280;68176;45.554;10.220;2023-04-03T14:49:47;99446.34;;;18.38;47.44
78825;BME280;68176;45.554;10.220;2023-04-03T14:52:35;99437.59;;;18.44;47.21
78825;BME280;68176;45.554;10.220;2023-04-03T14:55:23;99426.16;;;24.72;29.73
78825;BME280;68176;45.554;10.220;2023-04-03T14:57:49;99430.75;;;21.80;29.94
78825;BME280;68176;45.554;10.220;2023-04-03T15:00:19;99426.94;;;30.76;18.43
78825;BME280;68176;45.554;10.220;2023-04-03T15:02:45;99427.63;;;33.96;14.10
78825;BME280;68176;45.554;10.220;2023-04-03T15:05:15;99428.53;;;35.56;12.20
78825;BME280;68176;45.554;10.220;2023-04-03T15:08:03;99443.22;;;37.89;9.56
78825;BME280;68176;45.554;10.220;2023-04-03T15:10:30;99449.06;;;38.94;9.23
78825;BME280;68176;45.554;10.220;2023-04-03T15:12:57;99448.84;;;38.53;9.52
78825;BME280;68176;45.554;10.220;2023-04-03T15:15:30;99447.31;;;36.43;10.74
78825;BME280;68176;45.554;10.220;2023-04-03T15:17:56;99435.06;;;30.55;16.23
78825;BME280;68176;45.554;10.220;2023-04-03T15:20:27;99434.31;;;26.86;24.82
78825;BME280;68176;45.554;10.220;2023-04-03T15:22:53;99429.91;;;24.94;30.64
78825;BME280;68176;45.554;10.220;2023-04-03T15:25:23;99434.66;;;23.63;34.92
78825;BME280;68176;45.554;10.220;2023-04-03T15:27:54;99434.63;;;22.72;37.55
78825;BME280;68176;45.554;10.220;2023-04-03T15:30:23;99432.00;;;22.09;39.78
78825;BME280;68176;45.554;10.220;2023-04-03T15:32:53;99430.09;;;21.85;38.08
78825;BME280;68176;45.554;10.220;2023-04-03T15:35:23;99436.06;;;21.87;31.76
78825;BME280;68176;45.554;10.220;2023-04-03T15:37:53;99419.97;;;21.56;31.76
78825;BME280;68176;45.554;10.220;2023-04-03T15:40:23;99390.19;;;21.21;31.42
78825;BME280;68176;45.554;10.220;2023-04-03T15:42:53;99356.91;;;20.66;32.59
78825;BME280;68176;45.554;10.220;2023-04-03T15:45:23;99357.31;;;20.63;34.37
78825;BME280;68176;45.554;10.220;2023-04-03T15:47:53;99379.47;;;20.17;33.28
78825;BME280;68176;45.554;10.220;2023-04-03T15:50:23;99415.53;;;20.33;33.97
78825;BME280;68176;45.554;10.220;2023-04-03T15:52:53;99435.66;;;20.36;32.88
78825;BME280;68176;45.554;10.220;2023-04-03T15:55:31;99437.66;;;20.34;34.12
78825;BME280;68176;45.554;10.220;2023-04-03T15:57:57;99430.50;;;20.28;33.80
78825;BME280;68176;45.554;10.220;2023-04-03T16:00:24;99432.75;;;20.31;32.79
78825;BME280;68176;45.554;10.220;2023-04-03T16:02:57;99434.31;;;19.79;31.71
78825;BME280;68176;45.554;10.220;2023-04-03T16:05:25;99418.16;;;19.87;32.77
78825;BME280;68176;45.554;10.220;2023-04-03T16:07:53;99427.78;;;19.95;33.11
78825;BME280;68176;45.554;10.220;2023-04-03T16:10:23;99426.53;;;19.84;34.25
78825;BME280;68176;45.554;10.220;2023-04-03T16:12:53;99422.47;;;19.88;32.40
78825;BME280;68176;45.554;10.220;2023-04-03T16:15:24;99439.63;;;19.79;32.28
78825;BME280;68176;45.554;10.220;2023-04-03T16:17:54;99449.47;;;19.85;32.42
78825;BME280;68176;45.554;10.220;2023-04-03T16:20:23;99444.50;;;19.69;31.83
78825;BME280;68176;45.554;10.220;2023-04-03T16:22:53;99453.25;;;19.50;32.43
78825;BME280;68176;45.554;10.220;2023-04-03T16:25:23;99449.34;;;19.52;34.01
78825;BME280;68176;45.554;10.220;2023-04-03T16:27:53;99457.91;;;19.41;34.34
78825;BME280;68176;45.554;10.220;2023-04-03T16:30:23;99448.41;;;19.26;31.85
78825;BME280;68176;45.554;10.220;2023-04-03T16:32:53;99453.66;;;19.12;34.03
78825;BME280;68176;45.554;10.220;2023-04-03T16:35:23;99463.41;;;19.05;33.67
78825;BME280;68176;45.554;10.220;2023-04-03T16:37:53;99465.00;;;18.93;34.02
78825;BME280;68176;45.554;10.220;2023-04-03T16:40:23;99466.56;;;18.81;34.97
78825;BME280;68176;45.554;10.220;2023-04-03T16:42:53;99461.13;;;18.68;35.77
78825;BME280;68176;45.554;10.220;2023-04-03T16:45:23;99464.31;;;18.57;34.64
78825;BME280;68176;45.554;10.220;2023-04-03T16:47:53;99465.34;;;18.56;34.76
78825;BME280;68176;45.554;10.220;2023-04-03T16:50:23;99478.56;;;18.49;34.58
78825;BME280;68176;45.554;10.220;2023-04-03T16:52:53;99481.75;;;18.24;35.67
78825;BME280;68176;45.554;10.220;2023-04-03T16:55:23;99487.16;;;18.09;35.28
78825;BME280;68176;45.554;10.220;2023-04-03T16:57:53;99478.97;;;18.10;35.41
78825;BME280;68176;45.554;10.220;2023-04-03T17:00:23;99469.88;;;18.20;35.13
78825;BME280;68176;45.554;10.220;2023-04-03T17:02:53;99467.84;;;18.00;35.79
78825;BME280;68176;45.554;10.220;2023-04-03T17:05:23;99469.69;;;18.00;35.90
78825;BME280;68176;45.554;10.220;2023-04-03T17:07:53;99473.53;;;17.97;35.65
78825;BME280;68176;45.554;10.220;2023-04-03T17:10:24;99462.03;;;17.90;35.90
78825;BME280;68176;45.554;10.220;2023-04-03T17:12:53;99452.91;;;17.78;36.17
78825;BME280;68176;45.554;10.220;2023-04-03T17:15:24;99463.06;;;17.75;34.73
78825;BME280;68176;45.554;10.220;2023-04-03T17:17:53;99475.47;;;17.68;36.52
78825;BME280;68176;45.554;10.220;2023-04-03T17:20:23;99471.97;;;17.52;35.48
78825;BME280;68176;45.554;10.220;2023-04-03T17:22:53;99478.59;;;17.42;35.57
78825;BME280;68176;45.554;10.220;2023-04-03T17:25:23;99490.47;;;17.46;36.07
78825;BME280;68176;45.554;10.220;2023-04-03T17:27:54;99485.50;;;17.43;36.35
78825;BME280;68176;45.554;10.220;2023-04-03T17:30:23;99499.97;;;17.26;36.10